Terminal Aerodrome Forecast
Issued by NWS Greer, SC

Home | Current Version | Previous Version | Text Only | Print | Product List | Glossary On
Versions: 1 2 3 4 5 6 7 8 9 10 11 12 13 14 15 16 17 18 19
000
FTUS42 KGSP 251739
TAFGSP
TAF
KGSP 251739Z 2518/2618 28007KT P6SM VCSH OVC100
      TEMPO 2518/2522 4SM -SHRA BR
     FM252200 27003KT P6SM OVC070
     FM260700 27002KT 5SM -SHRA BR OVC045
     FM261200 03004KT 5SM -SHRA BR OVC020=

USA.gov is the U.S. government's official web portal to all federal, state and local government web resources and services.